sensor_id;sensor_type;location;lat;lon;timestamp;P1;durP1;ratioP1;P2;durP2;ratioP2
66179;SDS011;52986;44.028;20.466;2023-04-28T00:00:27;23.95;;;10.23;;
66179;SDS011;52986;44.028;20.466;2023-04-28T00:02:53;21.25;;;9.40;;
66179;SDS011;52986;44.028;20.466;2023-04-28T00:05:18;19.20;;;8.48;;
66179;SDS011;52986;44.028;20.466;2023-04-28T00:07:44;20.45;;;8.95;;
66179;SDS011;52986;44.028;20.466;2023-04-28T00:10:10;23.13;;;9.68;;
66179;SDS011;52986;44.028;20.466;2023-04-28T00:12:36;20.25;;;9.00;;
66179;SDS011;52986;44.028;20.466;2023-04-28T00:15:02;22.88;;;9.57;;
66179;SDS011;52986;44.028;20.466;2023-04-28T00:17:27;21.42;;;9.00;;
66179;SDS011;52986;44.028;20.466;2023-04-28T00:19:53;19.27;;;8.70;;
66179;SDS011;52986;44.028;20.466;2023-04-28T00:22:18;20.35;;;8.73;;
66179;SDS011;52986;44.028;20.466;2023-04-28T00:24:44;23.38;;;9.75;;
66179;SDS011;52986;44.028;20.466;2023-04-28T00:27:09;25.48;;;10.43;;
66179;SDS011;52986;44.028;20.466;2023-04-28T00:29:35;21.17;;;9.63;;
66179;SDS011;52986;44.028;20.466;2023-04-28T00:32:01;23.20;;;10.07;;
66179;SDS011;52986;44.028;20.466;2023-04-28T00:34:26;21.63;;;9.52;;
66179;SDS011;52986;44.028;20.466;2023-04-28T00:36:53;23.35;;;9.68;;
66179;SDS011;52986;44.028;20.466;2023-04-28T00:39:19;21.55;;;8.98;;
66179;SDS011;52986;44.028;20.466;2023-04-28T00:41:46;22.30;;;9.15;;
66179;SDS011;52986;44.028;20.466;2023-04-28T00:44:12;23.10;;;10.05;;
66179;SDS011;52986;44.028;20.466;2023-04-28T00:46:37;21.83;;;8.95;;
66179;SDS011;52986;44.028;20.466;2023-04-28T00:49:03;22.73;;;9.52;;
66179;SDS011;52986;44.028;20.466;2023-04-28T00:51:29;20.00;;;8.88;;
66179;SDS011;52986;44.028;20.466;2023-04-28T00:53:54;20.27;;;8.65;;
66179;SDS011;52986;44.028;20.466;2023-04-28T00:56:20;21.42;;;8.57;;
66179;SDS011;52986;44.028;20.466;2023-04-28T00:58:46;20.67;;;8.93;;
66179;SDS011;52986;44.028;20.466;2023-04-28T01:01:11;21.10;;;8.55;;
66179;SDS011;52986;44.028;20.466;2023-04-28T01:03:37;20.13;;;9.02;;
66179;SDS011;52986;44.028;20.466;2023-04-28T01:06:04;19.38;;;8.05;;
66179;SDS011;52986;44.028;20.466;2023-04-28T01:08:30;20.00;;;8.60;;
66179;SDS011;52986;44.028;20.466;2023-04-28T01:10:57;19.05;;;8.15;;
66179;SDS011;52986;44.028;20.466;2023-04-28T01:13:22;20.33;;;8.65;;
66179;SDS011;52986;44.028;20.466;2023-04-28T01:15:48;24.33;;;8.45;;
66179;SDS011;52986;44.028;20.466;2023-04-28T01:18:15;18.65;;;8.40;;
66179;SDS011;52986;44.028;20.466;2023-04-28T01:20:40;21.02;;;8.65;;
66179;SDS011;52986;44.028;20.466;2023-04-28T01:23:12;19.70;;;8.18;;
66179;SDS011;52986;44.028;20.466;2023-04-28T01:25:39;19.38;;;7.95;;
66179;SDS011;52986;44.028;20.466;2023-04-28T01:28:05;19.27;;;8.80;;
66179;SDS011;52986;44.028;20.466;2023-04-28T01:30:30;20.95;;;8.23;;
66179;SDS011;52986;44.028;20.466;2023-04-28T01:32:56;18.30;;;7.78;;
66179;SDS011;52986;44.028;20.466;2023-04-28T01:35:22;16.85;;;7.65;;
66179;SDS011;52986;44.028;20.466;2023-04-28T01:37:47;16.63;;;7.68;;
66179;SDS011;52986;44.028;20.466;2023-04-28T01:40:13;20.33;;;8.18;;
66179;SDS011;52986;44.028;20.466;2023-04-28T01:42:38;17.50;;;7.82;;
66179;SDS011;52986;44.028;20.466;2023-04-28T01:45:04;22.73;;;8.20;;
66179;SDS011;52986;44.028;20.466;2023-04-28T01:47:30;21.35;;;8.35;;
66179;SDS011;52986;44.028;20.466;2023-04-28T01:49:55;20.38;;;8.20;;
66179;SDS011;52986;44.028;20.466;2023-04-28T01:52:21;21.80;;;9.05;;
66179;SDS011;52986;44.028;20.466;2023-04-28T01:54:48;19.45;;;8.07;;
66179;SDS011;52986;44.028;20.466;2023-04-28T01:57:14;18.67;;;7.82;;
66179;SDS011;52986;44.028;20.466;2023-04-28T01:59:39;17.67;;;7.78;;
66179;SDS011;52986;44.028;20.466;2023-04-28T02:02:05;15.43;;;7.13;;
66179;SDS011;52986;44.028;20.466;2023-04-28T02:04:30;17.33;;;7.70;;
66179;SDS011;52986;44.028;20.466;2023-04-28T02:06:55;16.85;;;7.30;;
66179;SDS011;52986;44.028;20.466;2023-04-28T02:09:21;18.73;;;6.85;;
66179;SDS011;52986;44.028;20.466;2023-04-28T02:11:46;18.05;;;7.00;;
66179;SDS011;52986;44.028;20.466;2023-04-28T02:14:12;15.18;;;6.80;;
66179;SDS011;52986;44.028;20.466;2023-04-28T02:16:37;15.80;;;7.22;;
66179;SDS011;52986;44.028;20.466;2023-04-28T02:19:02;16.25;;;6.95;;
66179;SDS011;52986;44.028;20.466;2023-04-28T02:21:28;18.75;;;6.78;;
66179;SDS011;52986;44.028;20.466;2023-04-28T02:23:53;16.50;;;7.43;;
66179;SDS011;52986;44.028;20.466;2023-04-28T02:26:18;19.40;;;7.38;;
66179;SDS011;52986;44.028;20.466;2023-04-28T02:28:45;24.55;;;8.90;;
66179;SDS011;52986;44.028;20.466;2023-04-28T02:31:10;25.10;;;8.30;;
66179;SDS011;52986;44.028;20.466;2023-04-28T02:33:37;22.98;;;8.57;;
66179;SDS011;52986;44.028;20.466;2023-04-28T02:36:03;22.00;;;8.52;;
66179;SDS011;52986;44.028;20.466;2023-04-28T02:38:30;25.58;;;8.35;;
66179;SDS011;52986;44.028;20.466;2023-04-28T02:40:59;22.83;;;8.65;;
66179;SDS011;52986;44.028;20.466;2023-04-28T02:43:26;38.03;;;14.95;;
66179;SDS011;52986;44.028;20.466;2023-04-28T02:45:52;44.63;;;17.27;;
66179;SDS011;52986;44.028;20.466;2023-04-28T02:48:18;48.45;;;19.63;;
66179;SDS011;52986;44.028;20.466;2023-04-28T02:50:43;30.80;;;13.50;;
66179;SDS011;52986;44.028;20.466;2023-04-28T02:53:12;55.53;;;22.35;;
66179;SDS011;52986;44.028;20.466;2023-04-28T02:55:37;62.40;;;24.30;;
66179;SDS011;52986;44.028;20.466;2023-04-28T02:58:03;60.85;;;22.83;;
66179;SDS011;52986;44.028;20.466;2023-04-28T03:00:28;59.38;;;22.67;;
66179;SDS011;52986;44.028;20.466;2023-04-28T03:02:54;58.10;;;23.23;;
66179;SDS011;52986;44.028;20.466;2023-04-28T03:05:19;58.63;;;21.45;;
66179;SDS011;52986;44.028;20.466;2023-04-28T03:07:44;51.50;;;20.45;;
66179;SDS011;52986;44.028;20.466;2023-04-28T03:10:10;64.35;;;25.30;;
66179;SDS011;52986;44.028;20.466;2023-04-28T03:12:35;54.72;;;20.98;;
66179;SDS011;52986;44.028;20.466;2023-04-28T03:15:01;42.28;;;16.58;;
66179;SDS011;52986;44.028;20.466;2023-04-28T03:17:26;43.70;;;17.33;;
66179;SDS011;52986;44.028;20.466;2023-04-28T03:19:52;38.30;;;14.85;;
66179;SDS011;52986;44.028;20.466;2023-04-28T03:22:17;26.30;;;11.13;;
66179;SDS011;52986;44.028;20.466;2023-04-28T03:24:42;24.95;;;9.63;;
66179;SDS011;52986;44.028;20.466;2023-04-28T03:27:08;22.67;;;9.80;;
66179;SDS011;52986;44.028;20.466;2023-04-28T03:29:33;22.65;;;9.02;;
66179;SDS011;52986;44.028;20.466;2023-04-28T03:31:58;22.55;;;9.57;;
66179;SDS011;52986;44.028;20.466;2023-04-28T03:34:24;21.52;;;9.05;;
66179;SDS011;52986;44.028;20.466;2023-04-28T03:36:49;25.33;;;10.82;;
66179;SDS011;52986;44.028;20.466;2023-04-28T03:39:15;21.85;;;9.65;;
66179;SDS011;52986;44.028;20.466;2023-04-28T03:41:40;23.50;;;8.68;;
66179;SDS011;52986;44.028;20.466;2023-04-28T03:44:06;20.67;;;8.60;;
66179;SDS011;52986;44.028;20.466;2023-04-28T03:46:31;20.50;;;8.38;;
66179;SDS011;52986;44.028;20.466;2023-04-28T03:48:58;16.92;;;7.63;;
66179;SDS011;52986;44.028;20.466;2023-04-28T03:51:26;20.38;;;7.70;;
66179;SDS011;52986;44.028;20.466;2023-04-28T03:53:52;20.33;;;8.45;;
66179;SDS011;52986;44.028;20.466;2023-04-28T03:56:17;21.17;;;7.90;;
66179;SDS011;52986;44.028;20.466;2023-04-28T03:58:42;19.23;;;7.75;;
66179;SDS011;52986;44.028;20.466;2023-04-28T04:01:08;30.83;;;11.83;;
66179;SDS011;52986;44.028;20.466;2023-04-28T04:03:33;23.95;;;9.70;;
66179;SDS011;52986;44.028;20.466;2023-04-28T04:06:05;22.30;;;9.10;;
66179;SDS011;52986;44.028;20.466;2023-04-28T04:10:57;20.15;;;8.18;;
66179;SDS011;52986;44.028;20.466;2023-04-28T04:13:23;19.83;;;8.65;;
66179;SDS011;52986;44.028;20.466;2023-04-28T04:15:48;20.80;;;9.25;;
66179;SDS011;52986;44.028;20.466;2023-04-28T04:18:14;22.58;;;9.70;;
66179;SDS011;52986;44.028;20.466;2023-04-28T04:20:40;22.80;;;9.90;;
66179;SDS011;52986;44.028;20.466;2023-04-28T04:23:05;28.38;;;11.48;;
66179;SDS011;52986;44.028;20.466;2023-04-28T04:25:31;27.55;;;11.80;;
66179;SDS011;52986;44.028;20.466;2023-04-28T04:27:58;29.77;;;12.52;;
66179;SDS011;52986;44.028;20.466;2023-04-28T04:30:23;31.15;;;13.15;;
66179;SDS011;52986;44.028;20.466;2023-04-28T04:32:49;29.45;;;12.90;;
66179;SDS011;52986;44.028;20.466;2023-04-28T04:35:23;26.02;;;11.98;;
66179;SDS011;52986;44.028;20.466;2023-04-28T04:37:49;27.80;;;12.38;;
66179;SDS011;52986;44.028;20.466;2023-04-28T04:40:15;35.88;;;13.13;;
66179;SDS011;52986;44.028;20.466;2023-04-28T04:42:40;32.83;;;13.30;;
66179;SDS011;52986;44.028;20.466;2023-04-28T04:45:06;28.85;;;12.45;;
66179;SDS011;52986;44.028;20.466;2023-04-28T04:47:31;33.60;;;12.63;;
66179;SDS011;52986;44.028;20.466;2023-04-28T04:49:57;29.58;;;12.40;;
66179;SDS011;52986;44.028;20.466;2023-04-28T04:52:22;32.90;;;12.70;;
66179;SDS011;52986;44.028;20.466;2023-04-28T04:54:48;30.10;;;11.95;;
66179;SDS011;52986;44.028;20.466;2023-04-28T04:57:13;25.58;;;11.23;;
66179;SDS011;52986;44.028;20.466;2023-04-28T04:59:38;27.45;;;11.70;;
66179;SDS011;52986;44.028;20.466;2023-04-28T05:02:04;27.10;;;11.57;;
66179;SDS011;52986;44.028;20.466;2023-04-28T05:04:29;28.90;;;11.77;;
66179;SDS011;52986;44.028;20.466;2023-04-28T05:06:55;27.05;;;11.40;;
66179;SDS011;52986;44.028;20.466;2023-04-28T05:09:20;25.10;;;11.60;;
66179;SDS011;52986;44.028;20.466;2023-04-28T05:11:47;29.65;;;12.85;;
66179;SDS011;52986;44.028;20.466;2023-04-28T05:14:12;28.38;;;12.07;;
66179;SDS011;52986;44.028;20.466;2023-04-28T05:16:37;30.60;;;11.55;;
66179;SDS011;52986;44.028;20.466;2023-04-28T05:19:03;25.35;;;11.55;;
66179;SDS011;52986;44.028;20.466;2023-04-28T05:21:29;25.95;;;11.95;;
66179;SDS011;52986;44.028;20.466;2023-04-28T05:23:55;28.48;;;11.95;;
66179;SDS011;52986;44.028;20.466;2023-04-28T05:26:21;25.60;;;11.98;;
66179;SDS011;52986;44.028;20.466;2023-04-28T05:28:47;26.80;;;11.60;;
66179;SDS011;52986;44.028;20.466;2023-04-28T05:31:12;28.05;;;12.10;;
66179;SDS011;52986;44.028;20.466;2023-04-28T05:33:37;26.02;;;11.15;;
66179;SDS011;52986;44.028;20.466;2023-04-28T05:36:03;23.00;;;8.90;;
66179;SDS011;52986;44.028;20.466;2023-04-28T05:38:29;18.50;;;7.82;;
66179;SDS011;52986;44.028;20.466;2023-04-28T05:40:55;16.52;;;7.15;;
66179;SDS011;52986;44.028;20.466;2023-04-28T05:43:21;22.73;;;8.30;;
66179;SDS011;52986;44.028;20.466;2023-04-28T05:45:46;18.63;;;8.38;;
66179;SDS011;52986;44.028;20.466;2023-04-28T05:48:12;17.45;;;8.02;;
66179;SDS011;52986;44.028;20.466;2023-04-28T05:50:37;17.80;;;8.02;;
66179;SDS011;52986;44.028;20.466;2023-04-28T05:53:02;21.10;;;8.57;;
66179;SDS011;52986;44.028;20.466;2023-04-28T05:55:28;20.38;;;8.77;;
66179;SDS011;52986;44.028;20.466;2023-04-28T05:57:54;20.02;;;8.30;;
66179;SDS011;52986;44.028;20.466;2023-04-28T06:00:20;21.25;;;8.88;;
66179;SDS011;52986;44.028;20.466;2023-04-28T06:02:46;19.85;;;9.52;;
66179;SDS011;52986;44.028;20.466;2023-04-28T06:05:11;18.98;;;8.88;;
66179;SDS011;52986;44.028;20.466;2023-04-28T06:07:37;21.73;;;9.80;;
66179;SDS011;52986;44.028;20.466;2023-04-28T06:10:02;24.35;;;10.35;;
66179;SDS011;52986;44.028;20.466;2023-04-28T06:12:28;31.00;;;12.38;;
66179;SDS011;52986;44.028;20.466;2023-04-28T06:14:53;27.33;;;12.35;;
66179;SDS011;52986;44.028;20.466;2023-04-28T06:17:19;33.33;;;13.48;;
66179;SDS011;52986;44.028;20.466;2023-04-28T06:19:45;33.83;;;13.32;;
66179;SDS011;52986;44.028;20.466;2023-04-28T06:22:11;29.02;;;13.50;;
66179;SDS011;52986;44.028;20.466;2023-04-28T06:24:37;30.23;;;11.82;;
66179;SDS011;52986;44.028;20.466;2023-04-28T06:27:02;30.38;;;14.02;;
66179;SDS011;52986;44.028;20.466;2023-04-28T06:29:27;29.98;;;13.25;;
66179;SDS011;52986;44.028;20.466;2023-04-28T06:31:53;28.88;;;12.50;;
66179;SDS011;52986;44.028;20.466;2023-04-28T06:34:22;32.72;;;12.70;;
66179;SDS011;52986;44.028;20.466;2023-04-28T06:36:51;25.15;;;12.68;;
66179;SDS011;52986;44.028;20.466;2023-04-28T06:39:16;29.75;;;12.75;;
66179;SDS011;52986;44.028;20.466;2023-04-28T06:41:42;23.63;;;11.15;;
66179;SDS011;52986;44.028;20.466;2023-04-28T06:44:07;24.08;;;10.82;;
66179;SDS011;52986;44.028;20.466;2023-04-28T06:46:33;22.65;;;10.27;;
66179;SDS011;52986;44.028;20.466;2023-04-28T06:48:58;24.65;;;10.20;;
66179;SDS011;52986;44.028;20.466;2023-04-28T06:51:24;21.90;;;9.90;;
66179;SDS011;52986;44.028;20.466;2023-04-28T06:53:49;21.73;;;9.75;;
66179;SDS011;52986;44.028;20.466;2023-04-28T06:56:17;22.02;;;9.93;;
66179;SDS011;52986;44.028;20.466;2023-04-28T06:58:42;22.67;;;10.32;;
66179;SDS011;52986;44.028;20.466;2023-04-28T07:01:08;25.63;;;9.93;;
66179;SDS011;52986;44.028;20.466;2023-04-28T07:03:33;19.77;;;9.57;;
66179;SDS011;52986;44.028;20.466;2023-04-28T07:05:58;19.17;;;9.03;;
66179;SDS011;52986;44.028;20.466;2023-04-28T07:08:24;22.80;;;9.60;;
66179;SDS011;52986;44.028;20.466;2023-04-28T07:10:49;21.05;;;9.63;;
66179;SDS011;52986;44.028;20.466;2023-04-28T07:13:15;22.27;;;10.25;;
66179;SDS011;52986;44.028;20.466;2023-04-28T07:15:40;17.88;;;8.60;;
66179;SDS011;52986;44.028;20.466;2023-04-28T07:18:06;17.70;;;7.57;;
66179;SDS011;52986;44.028;20.466;2023-04-28T07:20:31;14.93;;;6.15;;
66179;SDS011;52986;44.028;20.466;2023-04-28T07:22:56;16.50;;;6.38;;
66179;SDS011;52986;44.028;20.466;2023-04-28T07:25:22;16.57;;;5.93;;
66179;SDS011;52986;44.028;20.466;2023-04-28T07:27:47;13.73;;;5.35;;
66179;SDS011;52986;44.028;20.466;2023-04-28T07:30:14;13.15;;;4.10;;
66179;SDS011;52986;44.028;20.466;2023-04-28T07:32:39;10.38;;;4.53;;
66179;SDS011;52986;44.028;20.466;2023-04-28T07:35:06;9.95;;;4.20;;
66179;SDS011;52986;44.028;20.466;2023-04-28T07:37:31;10.88;;;4.00;;
66179;SDS011;52986;44.028;20.466;2023-04-28T07:39:57;11.00;;;4.28;;
66179;SDS011;52986;44.028;20.466;2023-04-28T07:42:22;11.85;;;4.38;;
66179;SDS011;52986;44.028;20.466;2023-04-28T07:44:47;10.82;;;4.03;;
66179;SDS011;52986;44.028;20.466;2023-04-28T07:47:13;9.50;;;3.63;;
66179;SDS011;52986;44.028;20.466;2023-04-28T07:49:38;10.70;;;3.90;;
66179;SDS011;52986;44.028;20.466;2023-04-28T07:52:04;8.93;;;3.70;;
66179;SDS011;52986;44.028;20.466;2023-04-28T07:54:29;13.00;;;4.07;;
66179;SDS011;52986;44.028;20.466;2023-04-28T07:56:55;10.75;;;3.63;;
66179;SDS011;52986;44.028;20.466;2023-04-28T07:59:22;7.93;;;2.97;;
66179;SDS011;52986;44.028;20.466;2023-04-28T08:01:47;11.05;;;3.60;;
66179;SDS011;52986;44.028;20.466;2023-04-28T08:04:13;6.57;;;3.33;;
66179;SDS011;52986;44.028;20.466;2023-04-28T08:06:38;8.20;;;2.97;;
66179;SDS011;52986;44.028;20.466;2023-04-28T08:09:04;10.40;;;3.53;;
66179;SDS011;52986;44.028;20.466;2023-04-28T08:11:30;7.88;;;3.05;;
66179;SDS011;52986;44.028;20.466;2023-04-28T08:13:56;10.40;;;3.17;;
66179;SDS011;52986;44.028;20.466;2023-04-28T08:16:25;7.60;;;2.90;;
66179;SDS011;52986;44.028;20.466;2023-04-28T08:18:51;8.55;;;3.38;;
66179;SDS011;52986;44.028;20.466;2023-04-28T08:21:16;8.35;;;3.03;;
66179;SDS011;52986;44.028;20.466;2023-04-28T08:23:42;9.32;;;2.88;;
66179;SDS011;52986;44.028;20.466;2023-04-28T08:26:07;8.40;;;3.15;;
66179;SDS011;52986;44.028;20.466;2023-04-28T08:28:32;8.30;;;2.95;;
66179;SDS011;52986;44.028;20.466;2023-04-28T08:30:58;8.70;;;3.13;;
66179;SDS011;52986;44.028;20.466;2023-04-28T08:33:24;11.05;;;3.60;;
66179;SDS011;52986;44.028;20.466;2023-04-28T08:35:50;9.30;;;3.38;;
66179;SDS011;52986;44.028;20.466;2023-04-28T08:38:16;8.13;;;3.30;;
66179;SDS011;52986;44.028;20.466;2023-04-28T08:40:42;8.63;;;3.00;;
66179;SDS011;52986;44.028;20.466;2023-04-28T08:43:08;8.65;;;3.25;;
66179;SDS011;52986;44.028;20.466;2023-04-28T08:45:41;7.72;;;2.90;;
66179;SDS011;52986;44.028;20.466;2023-04-28T08:48:13;8.02;;;2.90;;
66179;SDS011;52986;44.028;20.466;2023-04-28T08:50:46;10.43;;;2.78;;
66179;SDS011;52986;44.028;20.466;2023-04-28T08:53:14;8.38;;;3.17;;
66179;SDS011;52986;44.028;20.466;2023-04-28T08:55:51;6.57;;;2.67;;
66179;SDS011;52986;44.028;20.466;2023-04-28T08:58:25;8.63;;;2.92;;
66179;SDS011;52986;44.028;20.466;2023-04-28T09:00:51;8.07;;;2.47;;
66179;SDS011;52986;44.028;20.466;2023-04-28T09:03:17;10.50;;;3.08;;
66179;SDS011;52986;44.028;20.466;2023-04-28T09:05:43;8.05;;;2.60;;
66179;SDS011;52986;44.028;20.466;2023-04-28T09:08:08;7.93;;;2.55;;
66179;SDS011;52986;44.028;20.466;2023-04-28T09:10:36;7.90;;;2.50;;
66179;SDS011;52986;44.028;20.466;2023-04-28T09:13:02;9.73;;;2.90;;
66179;SDS011;52986;44.028;20.466;2023-04-28T09:15:29;6.40;;;2.30;;
66179;SDS011;52986;44.028;20.466;2023-04-28T09:17:59;8.93;;;2.67;;
66179;SDS011;52986;44.028;20.466;2023-04-28T09:20:26;7.82;;;2.47;;
66179;SDS011;52986;44.028;20.466;2023-04-28T09:22:53;7.03;;;2.33;;
66179;SDS011;52986;44.028;20.466;2023-04-28T09:25:20;6.70;;;2.13;;
66179;SDS011;52986;44.028;20.466;2023-04-28T09:27:50;6.85;;;2.30;;
66179;SDS011;52986;44.028;20.466;2023-04-28T09:30:16;7.43;;;2.35;;
66179;SDS011;52986;44.028;20.466;2023-04-28T09:32:42;8.02;;;2.60;;
66179;SDS011;52986;44.028;20.466;2023-04-28T09:35:07;7.57;;;2.40;;
66179;SDS011;52986;44.028;20.466;2023-04-28T09:37:33;9.02;;;2.70;;
66179;SDS011;52986;44.028;20.466;2023-04-28T09:40:04;5.07;;;2.22;;
66179;SDS011;52986;44.028;20.466;2023-04-28T09:42:40;11.50;;;2.90;;
66179;SDS011;52986;44.028;20.466;2023-04-28T09:47:37;6.57;;;2.40;;
66179;SDS011;52986;44.028;20.466;2023-04-28T09:50:12;10.80;;;2.70;;
66179;SDS011;52986;44.028;20.466;2023-04-28T09:52:42;8.05;;;2.70;;
66179;SDS011;52986;44.028;20.466;2023-04-28T09:55:10;7.45;;;2.30;;
66179;SDS011;52986;44.028;20.466;2023-04-28T09:57:37;7.70;;;2.40;;
66179;SDS011;52986;44.028;20.466;2023-04-28T10:00:03;7.30;;;2.38;;
66179;SDS011;52986;44.028;20.466;2023-04-28T10:02:30;7.05;;;2.45;;
66179;SDS011;52986;44.028;20.466;2023-04-28T10:04:58;10.70;;;3.30;;
66179;SDS011;52986;44.028;20.466;2023-04-28T10:07:24;6.53;;;2.47;;
66179;SDS011;52986;44.028;20.466;2023-04-28T10:09:50;8.25;;;2.20;;
66179;SDS011;52986;44.028;20.466;2023-04-28T10:12:19;7.25;;;2.28;;
66179;SDS011;52986;44.028;20.466;2023-04-28T10:14:46;6.70;;;2.67;;
66179;SDS011;52986;44.028;20.466;2023-04-28T10:17:14;5.93;;;2.00;;
66179;SDS011;52986;44.028;20.466;2023-04-28T10:19:40;7.95;;;2.30;;
66179;SDS011;52986;44.028;20.466;2023-04-28T10:27:22;8.48;;;2.30;;
66179;SDS011;52986;44.028;20.466;2023-04-28T10:30:08;7.97;;;2.25;;
66179;SDS011;52986;44.028;20.466;2023-04-28T10:32:36;6.60;;;2.30;;
66179;SDS011;52986;44.028;20.466;2023-04-28T10:40:37;7.20;;;2.40;;
66179;SDS011;52986;44.028;20.466;2023-04-28T10:43:05;6.97;;;2.33;;
66179;SDS011;52986;44.028;20.466;2023-04-28T10:48:13;5.60;;;2.20;;
66179;SDS011;52986;44.028;20.466;2023-04-28T10:56:06;5.95;;;2.35;;
66179;SDS011;52986;44.028;20.466;2023-04-28T10:58:32;7.05;;;2.22;;
66179;SDS011;52986;44.028;20.466;2023-04-28T11:08:51;6.10;;;2.30;;
66179;SDS011;52986;44.028;20.466;2023-04-28T11:11:17;8.18;;;2.42;;
66179;SDS011;52986;44.028;20.466;2023-04-28T11:13:44;6.28;;;2.03;;
66179;SDS011;52986;44.028;20.466;2023-04-28T11:16:14;6.97;;;2.60;;
66179;SDS011;52986;44.028;20.466;2023-04-28T11:21:13;5.15;;;2.13;;
66179;SDS011;52986;44.028;20.466;2023-04-28T11:23:39;7.40;;;2.22;;
66179;SDS011;52986;44.028;20.466;2023-04-28T11:26:04;5.30;;;2.20;;
66179;SDS011;52986;44.028;20.466;2023-04-28T11:28:30;5.82;;;2.22;;
66179;SDS011;52986;44.028;20.466;2023-04-28T11:31:11;15.73;;;2.63;;
66179;SDS011;52986;44.028;20.466;2023-04-28T11:33:38;8.00;;;2.30;;
66179;SDS011;52986;44.028;20.466;2023-04-28T11:36:04;6.10;;;2.40;;
66179;SDS011;52986;44.028;20.466;2023-04-28T11:38:41;6.38;;;2.22;;
66179;SDS011;52986;44.028;20.466;2023-04-28T11:41:07;8.90;;;2.50;;
66179;SDS011;52986;44.028;20.466;2023-04-28T11:43:32;6.43;;;2.38;;
66179;SDS011;52986;44.028;20.466;2023-04-28T11:45:58;8.70;;;2.50;;
66179;SDS011;52986;44.028;20.466;2023-04-28T11:48:23;8.33;;;2.77;;
66179;SDS011;52986;44.028;20.466;2023-04-28T11:50:49;7.32;;;2.50;;
66179;SDS011;52986;44.028;20.466;2023-04-28T11:53:14;6.00;;;2.30;;
66179;SDS011;52986;44.028;20.466;2023-04-28T11:55:40;9.02;;;2.40;;
66179;SDS011;52986;44.028;20.466;2023-04-28T11:58:21;8.95;;;2.72;;
66179;SDS011;52986;44.028;20.466;2023-04-28T12:03:44;7.30;;;2.30;;
66179;SDS011;52986;44.028;20.466;2023-04-28T12:06:10;6.75;;;2.22;;
66179;SDS011;52986;44.028;20.466;2023-04-28T12:08:36;6.38;;;2.38;;
66179;SDS011;52986;44.028;20.466;2023-04-28T12:13:37;9.40;;;2.70;;
66179;SDS011;52986;44.028;20.466;2023-04-28T12:16:04;8.23;;;2.67;;
66179;SDS011;52986;44.028;20.466;2023-04-28T12:18:34;7.32;;;2.72;;
66179;SDS011;52986;44.028;20.466;2023-04-28T12:21:03;7.72;;;2.50;;
66179;SDS011;52986;44.028;20.466;2023-04-28T12:23:33;6.50;;;2.28;;
66179;SDS011;52986;44.028;20.466;2023-04-28T12:26:00;5.57;;;2.22;;
66179;SDS011;52986;44.028;20.466;2023-04-28T12:31:06;6.35;;;2.10;;
66179;SDS011;52986;44.028;20.466;2023-04-28T12:33:33;5.78;;;2.05;;
66179;SDS011;52986;44.028;20.466;2023-04-28T12:36:04;6.47;;;2.22;;
66179;SDS011;52986;44.028;20.466;2023-04-28T12:38:31;9.00;;;3.60;;
66179;SDS011;52986;44.028;20.466;2023-04-28T12:40:57;7.13;;;2.30;;
66179;SDS011;52986;44.028;20.466;2023-04-28T12:43:22;9.20;;;2.25;;
66179;SDS011;52986;44.028;20.466;2023-04-28T12:45:50;6.95;;;2.20;;
66179;SDS011;52986;44.028;20.466;2023-04-28T12:48:17;6.32;;;2.40;;
66179;SDS011;52986;44.028;20.466;2023-04-28T12:50:42;9.48;;;2.60;;
66179;SDS011;52986;44.028;20.466;2023-04-28T12:53:07;10.35;;;2.38;;
66179;SDS011;52986;44.028;20.466;2023-04-28T12:55:33;6.22;;;2.10;;
66179;SDS011;52986;44.028;20.466;2023-04-28T12:57:58;6.10;;;2.20;;
66179;SDS011;52986;44.028;20.466;2023-04-28T13:00:24;6.53;;;2.15;;
66179;SDS011;52986;44.028;20.466;2023-04-28T13:02:49;6.10;;;2.42;;
66179;SDS011;52986;44.028;20.466;2023-04-28T13:05:15;6.72;;;2.30;;
66179;SDS011;52986;44.028;20.466;2023-04-28T13:07:40;6.97;;;2.30;;
66179;SDS011;52986;44.028;20.466;2023-04-28T13:10:07;7.38;;;2.38;;
66179;SDS011;52986;44.028;20.466;2023-04-28T13:12:33;7.55;;;2.63;;
66179;SDS011;52986;44.028;20.466;2023-04-28T13:15:01;7.00;;;2.40;;
66179;SDS011;52986;44.028;20.466;2023-04-28T13:17:28;7.53;;;2.55;;
66179;SDS011;52986;44.028;20.466;2023-04-28T13:19:53;6.90;;;2.40;;
66179;SDS011;52986;44.028;20.466;2023-04-28T13:22:19;9.80;;;2.60;;
66179;SDS011;52986;44.028;20.466;2023-04-28T13:24:46;9.68;;;2.60;;
66179;SDS011;52986;44.028;20.466;2023-04-28T13:27:11;9.13;;;2.70;;
66179;SDS011;52986;44.028;20.466;2023-04-28T13:29:46;7.13;;;2.20;;
66179;SDS011;52986;44.028;20.466;2023-04-28T13:32:24;8.48;;;2.22;;
66179;SDS011;52986;44.028;20.466;2023-04-28T13:34:49;8.27;;;2.30;;
66179;SDS011;52986;44.028;20.466;2023-04-28T13:37:14;7.82;;;2.53;;
66179;SDS011;52986;44.028;20.466;2023-04-28T13:39:50;6.20;;;2.22;;
66179;SDS011;52986;44.028;20.466;2023-04-28T13:42:52;9.30;;;2.63;;
66179;SDS011;52986;44.028;20.466;2023-04-28T13:45:30;6.95;;;2.50;;
66179;SDS011;52986;44.028;20.466;2023-04-28T13:47:59;7.57;;;2.63;;
66179;SDS011;52986;44.028;20.466;2023-04-28T13:50:24;5.78;;;2.28;;
66179;SDS011;52986;44.028;20.466;2023-04-28T13:52:50;8.43;;;2.42;;
66179;SDS011;52986;44.028;20.466;2023-04-28T13:55:15;7.40;;;2.45;;
66179;SDS011;52986;44.028;20.466;2023-04-28T13:57:41;8.82;;;2.28;;
66179;SDS011;52986;44.028;20.466;2023-04-28T14:00:06;6.88;;;2.10;;
66179;SDS011;52986;44.028;20.466;2023-04-28T14:02:32;7.45;;;2.30;;
66179;SDS011;52986;44.028;20.466;2023-04-28T14:04:58;11.25;;;3.05;;
66179;SDS011;52986;44.028;20.466;2023-04-28T14:07:23;8.38;;;2.65;;
66179;SDS011;52986;44.028;20.466;2023-04-28T14:09:49;7.90;;;2.40;;
66179;SDS011;52986;44.028;20.466;2023-04-28T14:12:14;8.93;;;2.60;;
66179;SDS011;52986;44.028;20.466;2023-04-28T14:14:40;10.23;;;2.85;;
66179;SDS011;52986;44.028;20.466;2023-04-28T14:17:06;8.55;;;2.60;;
66179;SDS011;52986;44.028;20.466;2023-04-28T14:19:32;7.85;;;2.50;;
66179;SDS011;52986;44.028;20.466;2023-04-28T14:21:58;9.23;;;2.70;;
66179;SDS011;52986;44.028;20.466;2023-04-28T14:24:23;9.13;;;2.78;;
66179;SDS011;52986;44.028;20.466;2023-04-28T14:26:49;8.15;;;2.38;;
66179;SDS011;52986;44.028;20.466;2023-04-28T14:29:14;7.88;;;2.38;;
66179;SDS011;52986;44.028;20.466;2023-04-28T14:31:40;6.15;;;2.20;;
66179;SDS011;52986;44.028;20.466;2023-04-28T14:34:06;8.30;;;2.30;;
66179;SDS011;52986;44.028;20.466;2023-04-28T14:36:32;7.72;;;2.60;;
66179;SDS011;52986;44.028;20.466;2023-04-28T14:38:58;8.00;;;2.63;;
66179;SDS011;52986;44.028;20.466;2023-04-28T14:41:27;11.15;;;2.70;;
66179;SDS011;52986;44.028;20.466;2023-04-28T14:43:52;10.00;;;3.05;;
66179;SDS011;52986;44.028;20.466;2023-04-28T14:46:18;7.18;;;2.33;;
66179;SDS011;52986;44.028;20.466;2023-04-28T14:48:47;7.00;;;2.28;;
66179;SDS011;52986;44.028;20.466;2023-04-28T14:51:13;7.57;;;2.42;;
66179;SDS011;52986;44.028;20.466;2023-04-28T14:53:39;11.07;;;4.03;;
66179;SDS011;52986;44.028;20.466;2023-04-28T14:56:04;11.90;;;3.22;;
66179;SDS011;52986;44.028;20.466;2023-04-28T14:58:30;9.10;;;2.92;;
66179;SDS011;52986;44.028;20.466;2023-04-28T15:00:56;9.32;;;3.30;;